• Join FlightAware (Why Join?)
  • Login
  • US Flag 
10:06PM EDT


 

Airport Tracker/Info


-or-


 

Live Flight TrackerFlight Track Log ✈ AIQ401 ✈ 09-Jun-2014 ✈ VTBD / DMK - WMKP / PEN

Flight Track Log - Related Links

Times and Time Zones

All times are in EDT time to prevent confusion due to time zone crossing. See the AIQ401 flight status page for this flight to view local times or setup timezone preferences in your user account.

Time Position Orientation Groundspeed Altitude Reporting Facility
EDT Latitude Longitude Course Direction KTS MPH feet Rate Location/Type
05:42AM 7.3624 100.5121 174° South 448 516 39,000  Level FlightAware ADS-B (WMKP / PEN)
05:43AM 7.2803 100.5219 173° South 445 512 39,000 -120 Level FlightAware ADS-B (WMKP / PEN)
05:44AM 7.2002 100.5316 173° South 445 512 38,900 -1,440 Descending FlightAware ADS-B (WMKP / PEN)
05:44AM 7.1152 100.5416 173° South 449 517 37,100 -2,640 Descending FlightAware ADS-B (WMKP / PEN)
05:45AM 7.0318 100.5493 181° South 448 516 35,400 -3,060 Descending FlightAware ADS-B (WMKP / PEN)
05:46AM 6.9477 100.5349 192° South 467 537 33,000 -2,940 Descending FlightAware ADS-B (WMKP / PEN)
05:46AM 6.8642 100.5173 192° South 453 521 31,500 -2,400 Descending FlightAware ADS-B (WMKP / PEN)
05:47AM 6.8118 100.5058 192° South 450 518 29,900 -2,580 Descending FlightAware ADS-B (WMKP / PEN)
05:48AM 6.7008 100.4850 189° South 440 506 28,100 -3,120 Descending FlightAware ADS-B (WMKP / PEN)
05:48AM 6.6219 100.4722 189° South 451 519 25,700 -2,700 Descending FlightAware ADS-B (WMKP / PEN)
05:52AM 6.1570 100.3973 189° South 386 444 15,500 -2,520 Descending FlightAware ADS-B (WMKP / PEN)
05:53AM 6.0876 100.3862 189° South 377 434 14,000 -2,280 Descending FlightAware ADS-B (WMKP / PEN)
05:54AM 6.0193 100.3751 189° South 369 425 12,500 -2,040 Descending FlightAware ADS-B (WMKP / PEN)
05:54AM 5.9574 100.3652 189° South 349 402 11,400 -2,040 Descending FlightAware ADS-B (WMKP / PEN)
05:55AM 5.8896 100.3542 189° South 342 394 9,800 -1,920 Descending FlightAware ADS-B (WMKP / PEN)
05:55AM 5.8585 100.3492 189° South 331 381 9,400 -1,080 Descending FlightAware ADS-B (WMKP / PEN)
05:56AM 5.8287 100.3443 189° South 314 361 9,100 -780 Descending FlightAware ADS-B (WMKP / PEN)
05:56AM 5.8009 100.3401 189° South 299 344 8,900 -900 Descending FlightAware ADS-B (WMKP / PEN)
05:56AM 5.7736 100.3355 189° South 292 336 8,500 -1,380 Descending FlightAware ADS-B (WMKP / PEN)
05:57AM 5.7484 100.3314 189° South 287 330 8,000 -1,620 Descending FlightAware ADS-B (WMKP / PEN)
05:57AM 5.7202 100.3269 189° South 285 328 7,400 -1,980 Descending FlightAware ADS-B (WMKP / PEN)
05:57AM 5.6938 100.3243 176° South 289 333 6,700 -1,860 Descending FlightAware ADS-B (WMKP / PEN)
05:58AM 5.6679 100.3298 165° South 285 328 6,200 -1,500 Descending FlightAware ADS-B (WMKP / PEN)
05:58AM 5.6426 100.3367 165° South 281 323 5,700 -1,680 Descending FlightAware ADS-B (WMKP / PEN)
05:58AM 5.6172 100.3437 165° South 281 323 5,100 -1,800 Descending FlightAware ADS-B (WMKP / PEN)
05:59AM 5.5921 100.3506 165° South 281 323 4,500 -1,800 Descending FlightAware ADS-B (WMKP / PEN)
05:59AM 5.5673 100.3574 165° South 278 320 3,900 -1,680 Descending FlightAware ADS-B (WMKP / PEN)
05:59AM 5.5423 100.3643 165° South 275 316 3,400 -1,200 Descending FlightAware ADS-B (WMKP / PEN)
06:00AM 5.5180 100.3710 164° South 263 303 3,100 -480 Descending FlightAware ADS-B (WMKP / PEN)
06:00AM 5.4953 100.3773 165° South 241 277 3,100  Level FlightAware ADS-B (WMKP / PEN)
06:00AM 5.4742 100.3830 165° South 220 253 3,100  Level FlightAware ADS-B (WMKP / PEN)
06:01AM 5.4558 100.3880 165° South 201 231 3,100  Level FlightAware ADS-B (WMKP / PEN)
06:01AM 5.4374 100.3925 177° South 196 226 3,100  Level FlightAware ADS-B (WMKP / PEN)
06:01AM 5.4214 100.3869 228° Southwest 193 222 3,100 -480 Level FlightAware ADS-B (WMKP / PEN)
06:02AM 5.4100 100.3725 219° Southwest 194 223 2,800 -900 Descending FlightAware ADS-B (WMKP / PEN)
06:02AM 5.3957 100.3623 218° Southwest 186 214 2,500 -900 Descending FlightAware ADS-B (WMKP / PEN)
06:02AM 5.3825 100.3514 221° Southwest 179 206 2,200 -1,080 Descending FlightAware ADS-B (WMKP / PEN)
06:03AM 5.3704 100.3406 222° Southwest 166 191 1,800 -1,080 Descending FlightAware ADS-B (WMKP / PEN)
06:03AM 5.3592 100.3309 221° Southwest 145 167 1,500 -780 Descending FlightAware ADS-B (WMKP / PEN)
06:03AM 5.3499 100.3227 221° Southwest 134 154 1,300 -780 Descending FlightAware ADS-B (WMKP / PEN)
06:04AM 5.3398 100.3150 218° Southwest 130 150 1,000 -900 Descending FlightAware ADS-B (WMKP / PEN)
06:06AM 5.2971 100.2769 222° Southwest  Level Estimated
06:07AM 5.2971 100.2769 North  Level Estimated
06:08AM 5.2971 100.2769 North  Level Estimated
06:09AM 5.2971 100.2769 North  Level Estimated
06:10AM 5.2971 100.2769 North  Level Estimated
06:11AM 5.2971 100.2769 North  Level Estimated
06:12AM 5.2971 100.2769 North  Level Estimated
06:13AM 5.2971 100.2769 North  Level Estimated
06:14AM 5.2971 100.2769 North  Level Estimated
06:15AM 5.2971 100.2769 North  Level Estimated
06:16AM 5.2971 100.2769 North  Level Estimated
06:17AM 5.2971 100.2769 North  Level Estimated
06:18AM 5.2971 100.2769 North  Level Estimated
06:19AM 5.2971 100.2769 North  Level Estimated
06:20AM 5.2971 100.2769 North  Level Estimated
06:21AM 5.2971 100.2769 North  Level Estimated
06:22AM 5.2971 100.2769 North  Level Estimated
06:23AM 5.2971 100.2769 North  Level Estimated